Etusivu
METAR-TAF:

METAR-TAF

Lentoasemat :

Banjulin kansainvälinen lentoasema

Banjul, Gambia

Leveyspiiri: 13-21N, Pituuspiiri: 016-48W, korkeus merenpinnasta: 36 m

Tämänhetkinen sää

Tämä raportti tehtiin 24 minuuttia sitten, kello 13.00 UTC
Tuuli 10 kn koillisesta
Lämpötila 36°C
Kosteus 22%
Ilmanpaine 1011 hPa
Näkyvyys 10 km tai enemmän
ei pilviä alle 1500 m:ssä eikä cumulonimbus-pilviä

METAR: GBYD 291300Z 04010KT CAVOK 36/11 Q1011

Aika: 13:24 (13:24 UTC)

Sääennuste

Tämä raportti tehtiin 1 tunti ja 54 minuuttia sitten, kello 11.30 UTC
Ennuste voimassa 29. päivästä klo 12 UTC - 30. päivään klo 18 UTC
Tuuli 10 kn koillisesta
Näkyvyys 10 km tai enemmän
ei pilviä alle 1500 m:ssä eikä cumulonimbus-pilviä

TAF: GBYD 291130Z 2912/3018 04010KT CAVOK

Säähavainnot ja -ennusteet yli 4000 lentoasemalta (METAR- ja TAF-raportit).

Käytössä olevat sääasemat on merkitty karttaan keltaisilla ja punaisilla pisteillä.

Aseta hiiri pisteen päälle nähdäksesi sääaseman nimen.

Klikkaa sitten nähdäksesi säähavainnot ja -ennusteet.

Kartan vaihtaminen: klikkaa mustalla rastilla varustettuja vihreitä pisteitä, niin voit zoomata sisään; viivalla varustettua vihreää pistettä, niin voit zoomata ulos tai vihreitä nuolia, niin pääset viereisille kartoille.


METAR-TAF: